Time;durP1;ratioP1;P1;durP2;ratioP2;P2;SDS_P1;SDS_P2;PMS_P1;PMS_P2;Temp;Humidity;BMP_temperature;BMP_pressure;BME280_temperature;BME280_humidity;BME280_pressure;Samples;Min_cycle;Max_cycle;Signal;HPM_P1;HPM_P2
2023/01/28 00:01:43;;;;;;;18.85;10.57;;;2.20;99.90;;;;;;6211789;23;20012;-86
2023/01/28 00:04:09;;;;;;;17.38;10.63;;;2.30;99.90;;;;;;6211659;23;20068;-86
2023/01/28 00:06:35;;;;;;;15.48;10.20;;;2.40;99.90;;;;;;6211318;23;20345;-88
2023/01/28 00:09:00;;;;;;;17.98;10.43;;;2.40;99.90;;;;;;6184948;23;20000;-86
2023/01/28 00:11:26;;;;;;;16.98;10.05;;;2.50;99.90;;;;;;6214935;23;20005;-87
2023/01/28 00:13:53;;;;;;;17.60;9.93;;;2.50;99.90;;;;;;6187773;23;20031;-86
2023/01/28 00:16:21;;;;;;;17.17;9.60;;;2.50;99.90;;;;;;6187897;23;20059;-86
2023/01/28 00:18:47;;;;;;;14.00;9.68;;;2.50;99.90;;;;;;6186406;23;20001;-89
2023/01/28 00:21:14;;;;;;;16.05;10.15;;;2.40;99.90;;;;;;6212431;23;20016;-90
2023/01/28 00:23:42;;;;;;;18.92;10.82;;;2.50;99.90;;;;;;6185477;23;20460;-88
2023/01/28 00:26:13;;;;;;;14.18;10.32;;;2.50;99.90;;;;;;6184591;23;20015;-88
2023/01/28 00:28:40;;;;;;;16.70;10.35;;;2.50;99.90;;;;;;6211998;23;20001;-88
2023/01/28 00:31:16;;;;;;;17.38;10.48;;;2.60;99.90;;;;;;6185382;23;20012;-88
2023/01/28 00:33:42;;;;;;;17.63;10.70;;;2.50;99.90;;;;;;6211907;23;20027;-87
2023/01/28 00:36:08;;;;;;;16.17;9.68;;;2.60;99.90;;;;;;6211927;23;19997;-89
2023/01/28 00:38:34;;;;;;;18.00;9.82;;;2.60;99.90;;;;;;6211980;23;20433;-90
2023/01/28 00:41:12;;;;;;;18.88;10.35;;;2.70;99.90;;;;;;6186473;23;20079;-86
2023/01/28 00:43:38;;;;;;;15.43;10.10;;;2.70;99.90;;;;;;6211027;23;20008;-90
2023/01/28 00:46:06;;;;;;;17.75;9.80;;;2.80;99.90;;;;;;6211249;23;20437;-86
2023/01/28 00:48:32;;;;;;;12.90;9.57;;;2.80;99.90;;;;;;6212475;23;20000;-87
2023/01/28 00:50:58;;;;;;;15.52;9.55;;;2.80;99.90;;;;;;6211568;23;20004;-86
2023/01/28 00:53:57;;;;;;;16.75;9.52;;;2.80;99.90;;;;;;6211442;23;20000;-88
2023/01/28 00:56:23;;;;;;;15.32;9.77;;;2.80;99.90;;;;;;6124630;23;20016;-90
2023/01/28 00:58:51;;;;;;;17.42;9.68;;;2.80;99.90;;;;;;6149209;23;20001;-87
2023/01/28 01:01:23;;;;;;;16.27;9.45;;;2.90;99.90;;;;;;6148579;23;20446;-87
2023/01/28 01:04:01;;;;;;;14.38;9.40;;;2.90;99.90;;;;;;6124743;23;20036;-87
2023/01/28 01:06:29;;;;;;;13.40;9.85;;;2.90;99.90;;;;;;6124446;23;20006;-87
2023/01/28 01:08:55;;;;;;;13.40;9.20;;;2.90;99.90;;;;;;6149323;23;20494;-88
2023/01/28 01:11:21;;;;;;;15.82;8.65;;;2.90;99.90;;;;;;6148878;23;20002;-88
2023/01/28 01:13:51;;;;;;;16.27;8.93;;;2.90;99.90;;;;;;6152472;23;20005;-85
2023/01/28 01:16:17;;;;;;;14.25;9.30;;;3.00;99.90;;;;;;6159342;23;20108;-86
2023/01/28 01:18:43;;;;;;;13.07;9.25;;;3.00;99.90;;;;;;6133550;23;20033;-86
2023/01/28 01:21:11;;;;;;;18.23;9.15;;;3.10;99.90;;;;;;6155378;23;20013;-88
2023/01/28 01:23:36;;;;;;;15.20;8.47;;;3.10;99.90;;;;;;6151309;23;20009;-87
2023/01/28 01:26:04;;;;;;;15.82;8.23;;;3.10;99.90;;;;;;6125790;23;20229;-88
2023/01/28 01:28:30;;;;;;;13.57;8.27;;;3.20;99.90;;;;;;6179488;23;20454;-89
2023/01/28 01:31:00;;;;;;;12.60;8.02;;;3.20;99.90;;;;;;6181446;23;20084;-90
2023/01/28 01:33:28;;;;;;;13.52;8.13;;;3.20;99.90;;;;;;6181311;23;20342;-88
2023/01/28 01:35:54;;;;;;;15.48;7.55;;;3.20;99.90;;;;;;6180813;23;20014;-89
2023/01/28 01:38:20;;;;;;;10.27;7.10;;;3.20;99.90;;;;;;6181338;23;20004;-87
2023/01/28 01:40:45;;;;;;;10.82;7.30;;;3.20;99.90;;;;;;6181311;23;20005;-87
2023/01/28 01:43:16;;;;;;;12.82;6.90;;;3.20;99.90;;;;;;6181127;23;20493;-87
2023/01/28 01:45:46;;;;;;;12.27;6.75;;;3.20;99.90;;;;;;6179955;23;20052;-87
2023/01/28 01:48:22;;;;;;;12.98;6.38;;;3.30;99.90;;;;;;6180164;23;20414;-87
2023/01/28 01:50:58;;;;;;;12.32;6.60;;;3.30;99.90;;;;;;6181137;23;20068;-90
2023/01/28 01:53:25;;;;;;;17.00;6.35;;;3.70;99.90;;;;;;6179695;23;20012;-90
2023/01/28 01:55:56;;;;;;;12.95;6.38;;;3.40;99.90;;;;;;6181174;23;20001;-92
2023/01/28 01:58:26;;;;;;;14.13;5.70;;;3.40;99.90;;;;;;6182177;23;20001;-90
2023/01/28 02:00:52;;;;;;;12.75;5.63;;;3.40;99.90;;;;;;6180606;23;20430;-86
2023/01/28 02:03:27;;;;;;;12.55;5.82;;;3.40;99.90;;;;;;6180888;23;20040;-88
2023/01/28 02:05:53;;;;;;;8.13;5.20;;;3.40;99.90;;;;;;6181022;23;20001;-87
2023/01/28 02:08:22;;;;;;;15.98;5.25;;;3.40;99.90;;;;;;6182248;23;20012;-88
2023/01/28 02:11:02;;;;;;;9.32;5.03;;;3.40;99.90;;;;;;6205066;23;20140;-89
2023/01/28 02:13:35;;;;;;;8.68;4.60;;;3.50;99.90;;;;;;6179326;23;20136;-89
2023/01/28 02:16:02;;;;;;;9.82;4.60;;;3.40;99.90;;;;;;6180744;23;20039;-88
2023/01/28 02:18:27;;;;;;;9.43;4.72;;;3.50;99.90;;;;;;6180955;23;20024;-89
2023/01/28 02:20:59;;;;;;;8.43;4.63;;;3.50;99.90;;;;;;6180778;23;20337;-88
2023/01/28 02:24:22;;;;;;;9.90;4.78;;;3.50;99.90;;;;;;6180748;23;20012;-90
2023/01/28 02:27:03;;;;;;;8.57;5.18;;;3.50;99.90;;;;;;6187599;23;20036;-88
2023/01/28 02:29:43;;;;;;;11.55;5.30;;;3.50;99.90;;;;;;6210902;23;20059;-88
2023/01/28 02:32:50;;;;;;;13.45;5.70;;;3.50;99.90;;;;;;6210978;23;20425;-87
2023/01/28 02:35:41;;;;;;;11.75;5.55;;;3.50;99.90;;;;;;6103787;23;20010;-90
2023/01/28 02:38:25;;;;;;;11.13;5.40;;;3.50;99.90;;;;;;6212021;23;20004;-91
2023/01/28 02:41:01;;;;;;;11.77;6.00;;;3.50;99.90;;;;;;6210508;23;20001;-88
2023/01/28 02:43:34;;;;;;;14.10;4.80;;;3.50;99.90;;;;;;6210271;23;20066;-88
2023/01/28 02:49:17;;;;;;;9.63;4.80;;;3.60;99.90;;;;;;6214306;23;20015;-86
2023/01/28 02:52:07;;;;;;;13.25;5.18;;;3.60;99.90;;;;;;6188341;23;20032;-86
2023/01/28 02:54:48;;;;;;;9.55;4.82;;;3.50;99.90;;;;;;6213082;23;20000;-85
2023/01/28 02:57:31;;;;;;;10.27;4.88;;;3.60;99.90;;;;;;6185234;23;20012;-89
2023/01/28 03:00:01;;;;;;;14.75;4.70;;;3.60;99.90;;;;;;6211952;23;20051;-86
2023/01/28 03:02:45;;;;;;;6.53;4.68;;;3.60;99.90;;;;;;6211831;23;20318;-86
2023/01/28 03:05:21;;;;;;;11.77;5.18;;;3.60;99.90;;;;;;6212060;23;20452;-87
2023/01/28 03:07:47;;;;;;;9.05;4.65;;;3.50;99.90;;;;;;6211457;23;20027;-86
2023/01/28 03:10:17;;;;;;;10.45;4.85;;;3.60;99.90;;;;;;6185318;23;20040;-86
2023/01/28 03:38:32;;;;;;;10.30;5.80;;;3.30;99.90;;;;;;6211969;23;20011;-86
2023/01/28 03:41:02;;;;;;;9.85;5.40;;;3.30;99.90;;;;;;6211523;23;20004;-86
2023/01/28 03:43:29;;;;;;;9.90;5.20;;;3.20;99.90;;;;;;6211941;23;20000;-88
2023/01/28 03:45:55;;;;;;;10.63;5.53;;;3.10;99.90;;;;;;6212483;23;20090;-86
2023/01/28 03:48:23;;;;;;;10.57;5.85;;;3.20;99.90;;;;;;6189083;23;20032;-85
2023/01/28 03:50:49;;;;;;;9.60;5.05;;;3.20;99.90;;;;;;6188372;23;20031;-87
2023/01/28 03:53:16;;;;;;;8.35;5.28;;;3.10;99.90;;;;;;6213970;23;20008;-86
2023/01/28 03:55:42;;;;;;;10.38;5.78;;;3.00;99.90;;;;;;6212536;23;19996;-86
2023/01/28 03:58:08;;;;;;;12.32;5.70;;;3.10;99.90;;;;;;6212711;23;20322;-85
2023/01/28 04:00:40;;;;;;;10.85;5.07;;;3.00;99.90;;;;;;6211624;23;19997;-86
2023/01/28 04:03:14;;;;;;;11.88;6.18;;;2.90;99.90;;;;;;6211716;23;20080;-85
2023/01/28 04:05:56;;;;;;;10.10;5.55;;;3.00;99.90;;;;;;6213033;23;20001;-86
2023/01/28 04:08:22;;;;;;;12.05;5.78;;;2.80;99.90;;;;;;6184830;23;20394;-87
2023/01/28 04:10:48;;;;;;;11.10;5.90;;;2.80;99.90;;;;;;6210644;23;20100;-86
2023/01/28 04:13:14;;;;;;;8.98;5.85;;;2.80;99.90;;;;;;6211254;23;20456;-87
2023/01/28 04:15:42;;;;;;;13.75;5.68;;;3.00;99.90;;;;;;6185994;23;20464;-85
2023/01/28 04:18:08;;;;;;;13.95;6.15;;;3.00;99.90;;;;;;6184765;23;20008;-86
2023/01/28 04:20:34;;;;;;;11.82;6.00;;;2.90;99.90;;;;;;6184669;23;20016;-86
2023/01/28 04:22:59;;;;;;;8.43;5.50;;;3.00;99.90;;;;;;6210900;23;20349;-86
2023/01/28 04:25:25;;;;;;;10.77;6.00;;;3.00;99.90;;;;;;6184780;23;20001;-86
2023/01/28 04:27:51;;;;;;;10.20;5.85;;;3.10;99.90;;;;;;6211248;23;20019;-87
2023/01/28 04:30:17;;;;;;;9.40;6.18;;;3.10;99.90;;;;;;6184892;23;20004;-85
2023/01/28 04:32:42;;;;;;;9.93;6.43;;;3.00;99.90;;;;;;6185609;23;20012;-88
2023/01/28 04:35:08;;;;;;;9.07;6.05;;;3.00;99.90;;;;;;6211395;23;20008;-87
2023/01/28 04:37:34;;;;;;;11.20;6.55;;;3.10;99.90;;;;;;6184551;23;20251;-86
2023/01/28 04:39:59;;;;;;;9.95;5.82;;;3.10;99.90;;;;;;6211109;23;20004;-87
2023/01/28 04:42:25;;;;;;;8.23;5.88;;;3.10;99.90;;;;;;6209002;23;20013;-86
2023/01/28 04:44:50;;;;;;;10.50;6.50;;;3.00;99.90;;;;;;6211163;23;20001;-86
2023/01/28 04:47:17;;;;;;;13.30;6.38;;;3.00;99.90;;;;;;6184144;23;20008;-87
2023/01/28 04:49:43;;;;;;;10.52;6.10;;;2.90;99.90;;;;;;6185452;23;20079;-85
2023/01/28 04:52:08;;;;;;;8.60;6.35;;;2.90;99.90;;;;;;6184512;23;20102;-86
2023/01/28 04:54:34;;;;;;;11.43;6.70;;;2.90;99.90;;;;;;6211035;23;20064;-86
2023/01/28 04:56:59;;;;;;;8.35;6.32;;;2.90;99.90;;;;;;6184086;23;20396;-86
2023/01/28 04:59:25;;;;;;;9.85;6.47;;;2.80;99.90;;;;;;6183952;23;20008;-86
2023/01/28 05:01:50;;;;;;;11.55;6.53;;;2.60;99.90;;;;;;6211107;23;20084;-85
2023/01/28 05:04:16;;;;;;;10.32;6.90;;;2.50;99.90;;;;;;6184373;23;20007;-86
2023/01/28 05:06:42;;;;;;;12.00;6.70;;;2.50;99.90;;;;;;6211931;23;20319;-86
2023/01/28 05:09:08;;;;;;;9.40;6.43;;;2.50;99.90;;;;;;6184064;23;20001;-86
2023/01/28 05:11:33;;;;;;;13.15;6.40;;;2.40;99.90;;;;;;6183917;23;20029;-86
2023/01/28 05:13:59;;;;;;;17.17;6.40;;;2.30;99.90;;;;;;6209494;23;20004;-86
2023/01/28 05:16:24;;;;;;;12.98;6.43;;;2.30;99.90;;;;;;6211002;23;20438;-87
2023/01/28 05:18:50;;;;;;;16.02;6.60;;;2.20;99.90;;;;;;6211026;23;20004;-86
2023/01/28 05:21:17;;;;;;;8.57;6.38;;;2.10;99.90;;;;;;6185250;23;20012;-87
2023/01/28 05:23:42;;;;;;;12.57;6.93;;;2.10;99.90;;;;;;6186114;23;20016;-86
2023/01/28 05:26:09;;;;;;;12.68;7.18;;;2.00;99.90;;;;;;6211639;23;20005;-85
2023/01/28 05:28:35;;;;;;;11.65;6.97;;;2.00;99.90;;;;;;6212367;23;20434;-85
2023/01/28 05:31:05;;;;;;;9.82;6.53;;;2.00;99.90;;;;;;6211008;23;20067;-86
2023/01/28 05:33:31;;;;;;;8.85;7.00;;;1.90;99.90;;;;;;6210491;23;20000;-86
2023/01/28 05:35:56;;;;;;;10.48;6.93;;;1.90;99.90;;;;;;6210627;23;20004;-85
2023/01/28 05:38:22;;;;;;;12.35;6.35;;;1.90;99.90;;;;;;6210108;23;20004;-86
2023/01/28 05:40:48;;;;;;;9.13;6.50;;;1.90;99.90;;;;;;6184397;23;20005;-86
2023/01/28 05:43:14;;;;;;;10.35;6.63;;;1.90;99.90;;;;;;6185152;23;20445;-86
2023/01/28 05:45:40;;;;;;;11.38;7.47;;;2.00;99.90;;;;;;6184068;23;20000;-86
2023/01/28 05:48:05;;;;;;;8.85;6.35;;;1.90;99.90;;;;;;6209066;23;20013;-86
2023/01/28 05:50:32;;;;;;;11.90;7.38;;;1.80;99.90;;;;;;6210220;23;20341;-85
2023/01/28 05:52:57;;;;;;;13.68;7.28;;;1.70;99.90;;;;;;6210388;23;20418;-87
2023/01/28 05:55:23;;;;;;;13.55;7.95;;;1.70;99.90;;;;;;6210710;23;20062;-86
2023/01/28 05:57:49;;;;;;;12.73;7.75;;;1.70;99.90;;;;;;6210824;23;20000;-86
2023/01/28 06:00:15;;;;;;;14.02;7.65;;;1.60;99.90;;;;;;6184439;23;20004;-86
2023/01/28 06:02:42;;;;;;;14.43;7.65;;;1.60;99.90;;;;;;6210002;23;20406;-86
2023/01/28 06:05:08;;;;;;;11.48;7.10;;;1.60;99.90;;;;;;6210477;23;20000;-86
2023/01/28 06:07:33;;;;;;;9.45;6.53;;;1.60;99.90;;;;;;6183389;23;20005;-86
2023/01/28 06:09:59;;;;;;;11.20;7.03;;;1.60;99.90;;;;;;6208905;23;20027;-85
2023/01/28 06:12:25;;;;;;;13.35;7.10;;;1.60;99.90;;;;;;6210550;23;20329;-85
2023/01/28 06:14:50;;;;;;;10.38;7.32;;;1.50;99.90;;;;;;6183232;23;20015;-86
2023/01/28 06:17:16;;;;;;;13.98;7.40;;;1.50;99.90;;;;;;6185100;23;20001;-86
2023/01/28 06:19:43;;;;;;;11.57;8.00;;;1.50;99.90;;;;;;6183960;23;19997;-86
2023/01/28 06:22:09;;;;;;;12.90;7.60;;;1.40;99.90;;;;;;6185380;23;20055;-84
2023/01/28 06:24:34;;;;;;;11.88;7.28;;;1.40;99.90;;;;;;6185129;23;20001;-85
2023/01/28 06:27:00;;;;;;;16.35;7.85;;;1.40;99.90;;;;;;6205314;23;20452;-86
2023/01/28 06:29:26;;;;;;;12.43;7.57;;;1.30;99.90;;;;;;6180391;23;20047;-85
2023/01/28 06:31:51;;;;;;;11.32;7.65;;;1.20;99.90;;;;;;6180283;23;20005;-85
2023/01/28 06:34:17;;;;;;;11.27;7.90;;;1.20;99.90;;;;;;6179374;23;20399;-86
2023/01/28 06:36:42;;;;;;;14.05;7.75;;;1.10;99.90;;;;;;6180174;23;20009;-86
2023/01/28 06:39:08;;;;;;;15.30;8.27;;;1.20;99.90;;;;;;6203657;23;20005;-86
2023/01/28 06:41:34;;;;;;;22.00;9.73;;;1.10;99.90;;;;;;6180291;23;20009;-86
2023/01/28 06:43:59;;;;;;;13.40;9.15;;;1.00;99.90;;;;;;6180078;23;20001;-89
2023/01/28 06:46:25;;;;;;;15.82;8.20;;;1.00;99.90;;;;;;6180023;23;20004;-85
2023/01/28 06:48:51;;;;;;;15.85;8.55;;;1.00;99.90;;;;;;6180815;23;20005;-84
2023/01/28 06:51:17;;;;;;;12.35;7.97;;;0.90;99.90;;;;;;6179598;23;20504;-85
2023/01/28 06:53:42;;;;;;;14.52;8.60;;;0.90;99.90;;;;;;6179971;23;20024;-88
2023/01/28 06:56:08;;;;;;;12.15;8.70;;;0.90;99.90;;;;;;6203050;23;20036;-86
2023/01/28 06:58:34;;;;;;;16.15;9.27;;;0.90;99.90;;;;;;6204131;23;20001;-87
2023/01/28 07:01:00;;;;;;;15.75;9.68;;;0.90;99.90;;;;;;6179884;23;20056;-86
2023/01/28 07:03:25;;;;;;;13.18;8.88;;;0.90;99.90;;;;;;6179566;23;20005;-86
2023/01/28 07:05:51;;;;;;;13.48;8.88;;;1.00;99.90;;;;;;6181273;23;20387;-86
2023/01/28 07:08:16;;;;;;;17.85;9.40;;;1.10;99.90;;;;;;6203459;23;20012;-89
2023/01/28 07:10:43;;;;;;;15.02;9.43;;;1.00;99.90;;;;;;6180197;23;20731;-85
2023/01/28 07:13:09;;;;;;;14.40;9.55;;;1.00;99.90;;;;;;6178756;23;20005;-86
2023/01/28 07:15:34;;;;;;;15.90;9.57;;;1.00;99.90;;;;;;6179713;23;20002;-86
2023/01/28 07:18:00;;;;;;;15.55;9.63;;;1.00;99.90;;;;;;6203687;23;20010;-85
2023/01/28 07:20:26;;;;;;;20.35;10.27;;;1.10;99.90;;;;;;6179824;23;20009;-86
2023/01/28 07:22:52;;;;;;;16.98;10.20;;;1.10;99.90;;;;;;6181058;23;20037;-88
2023/01/28 07:25:17;;;;;;;15.23;10.18;;;1.20;99.90;;;;;;6180664;23;20001;-86
2023/01/28 07:27:51;;;;;;;13.23;10.32;;;1.20;99.90;;;;;;6199927;23;20040;-87
2023/01/28 07:30:17;;;;;;;13.85;10.13;;;1.20;99.90;;;;;;6209957;23;19997;-85
2023/01/28 07:32:43;;;;;;;13.95;10.20;;;1.20;99.90;;;;;;6183291;23;20619;-86
2023/01/28 07:35:09;;;;;;;15.82;10.70;;;1.20;99.90;;;;;;6184379;23;20445;-85
2023/01/28 07:37:35;;;;;;;19.42;11.23;;;1.20;99.90;;;;;;6185410;23;20008;-85
2023/01/28 07:40:00;;;;;;;15.95;11.00;;;1.20;99.90;;;;;;6185131;23;20000;-85
2023/01/28 07:42:26;;;;;;;15.10;11.40;;;1.40;99.90;;;;;;6217765;23;20012;-85
2023/01/28 07:44:52;;;;;;;17.08;11.52;;;1.30;99.90;;;;;;6185195;23;20000;-85
2023/01/28 07:47:18;;;;;;;16.25;11.27;;;1.30;99.90;;;;;;6184987;23;20009;-85
2023/01/28 07:49:44;;;;;;;20.65;11.27;;;1.40;99.90;;;;;;6185065;23;20218;-86
2023/01/28 07:52:09;;;;;;;14.30;11.25;;;1.50;99.90;;;;;;6211961;23;20104;-86
2023/01/28 07:54:35;;;;;;;18.33;11.93;;;1.50;99.90;;;;;;6184832;23;20050;-86
2023/01/28 07:57:01;;;;;;;19.65;11.70;;;1.50;99.90;;;;;;6211736;23;20004;-86
2023/01/28 07:59:26;;;;;;;14.57;11.38;;;1.60;99.90;;;;;;6185172;23;20080;-85
2023/01/28 08:01:55;;;;;;;17.23;12.05;;;1.60;99.90;;;;;;6187157;23;20020;-86
2023/01/28 08:04:20;;;;;;;16.55;11.80;;;1.60;99.90;;;;;;6213334;23;20001;-85
2023/01/28 08:06:46;;;;;;;18.45;11.25;;;1.70;99.90;;;;;;6212735;23;20065;-88
2023/01/28 08:09:12;;;;;;;16.42;11.50;;;1.70;99.90;;;;;;6212529;23;20043;-86
2023/01/28 08:11:38;;;;;;;17.63;11.63;;;1.70;99.90;;;;;;6210829;23;20004;-85
2023/01/28 08:14:04;;;;;;;17.77;11.82;;;1.80;99.90;;;;;;6185012;23;20319;-86
2023/01/28 08:16:30;;;;;;;21.25;12.60;;;1.80;99.90;;;;;;6211409;23;20005;-86
2023/01/28 08:18:56;;;;;;;18.70;12.23;;;2.10;99.90;;;;;;6211682;23;20001;-86
2023/01/28 08:21:22;;;;;;;21.25;12.73;;;1.80;99.90;;;;;;6212315;23;20079;-85
2023/01/28 08:23:48;;;;;;;17.23;12.77;;;1.80;99.90;;;;;;6211449;23;20036;-85
2023/01/28 08:26:13;;;;;;;18.70;13.02;;;1.90;99.90;;;;;;6210616;23;19996;-87
2023/01/28 08:28:39;;;;;;;17.45;12.60;;;1.90;99.90;;;;;;6211483;23;20019;-85
2023/01/28 08:31:05;;;;;;;16.75;12.68;;;1.90;99.90;;;;;;6211349;23;20073;-86
2023/01/28 08:33:31;;;;;;;18.23;12.43;;;1.90;99.90;;;;;;6184809;23;20063;-85
2023/01/28 08:35:57;;;;;;;19.30;13.20;;;1.90;99.90;;;;;;6185972;23;20012;-86
2023/01/28 08:38:23;;;;;;;18.63;13.80;;;1.90;99.90;;;;;;6212007;23;20000;-87
2023/01/28 08:40:49;;;;;;;16.58;13.07;;;1.90;99.90;;;;;;6184781;23;20027;-85
2023/01/28 08:43:15;;;;;;;19.80;13.50;;;1.90;99.90;;;;;;6211131;23;20012;-87
2023/01/28 08:45:41;;;;;;;17.92;13.60;;;1.90;99.90;;;;;;6210811;23;20310;-85
2023/01/28 08:48:10;;;;;;;22.48;15.25;;;2.00;99.90;;;;;;6211231;23;20437;-85
2023/01/28 08:50:38;;;;;;;19.10;14.13;;;2.00;99.90;;;;;;6184634;23;20001;-85
2023/01/28 08:53:09;;;;;;;19.88;14.38;;;2.10;99.90;;;;;;6210945;23;20036;-85
2023/01/28 08:55:35;;;;;;;19.48;14.75;;;2.20;99.90;;;;;;6185532;23;20008;-85
2023/01/28 08:58:03;;;;;;;18.50;14.43;;;2.20;99.90;;;;;;6185595;23;20088;-86
2023/01/28 09:00:28;;;;;;;21.38;15.10;;;2.30;99.90;;;;;;6211967;23;20437;-84
2023/01/28 09:02:54;;;;;;;20.50;15.65;;;2.30;99.90;;;;;;6212521;23;20008;-85
2023/01/28 09:05:20;;;;;;;20.52;14.27;;;2.40;99.90;;;;;;6184343;23;20007;-84
2023/01/28 09:07:46;;;;;;;18.90;14.95;;;2.40;99.90;;;;;;6210792;23;20009;-87
2023/01/28 09:10:12;;;;;;;19.15;14.65;;;2.40;99.90;;;;;;6184367;23;20011;-85
2023/01/28 09:12:38;;;;;;;19.77;13.88;;;2.40;99.90;;;;;;6211358;23;20075;-84
2023/01/28 09:15:04;;;;;;;24.75;14.95;;;2.50;99.90;;;;;;6210877;23;20027;-87
2023/01/28 09:17:30;;;;;;;20.08;15.10;;;2.60;99.90;;;;;;6184358;23;20005;-86
2023/01/28 09:19:55;;;;;;;23.17;15.77;;;2.70;99.90;;;;;;6211550;23;19996;-85
2023/01/28 09:22:21;;;;;;;20.20;15.15;;;2.70;99.90;;;;;;6210520;23;20051;-85
2023/01/28 09:24:46;;;;;;;20.05;14.65;;;2.70;99.90;;;;;;6184426;23;20011;-85
2023/01/28 09:27:12;;;;;;;22.02;15.48;;;2.80;99.90;;;;;;6210768;23;20019;-83
2023/01/28 09:29:38;;;;;;;19.55;15.48;;;2.90;99.90;;;;;;6210798;23;20043;-85
2023/01/28 09:32:05;;;;;;;19.63;14.98;;;3.00;99.90;;;;;;6210932;23;20495;-86
2023/01/28 09:34:31;;;;;;;21.40;14.68;;;3.10;99.90;;;;;;6209955;23;19996;-84
2023/01/28 09:36:57;;;;;;;19.42;13.80;;;3.20;99.90;;;;;;6211867;23;20007;-85
2023/01/28 09:39:24;;;;;;;21.15;15.65;;;3.20;99.90;;;;;;6210771;23;20437;-85
2023/01/28 09:42:01;;;;;;;17.73;14.20;;;3.20;99.90;;;;;;6183975;23;20012;-86
2023/01/28 09:44:32;;;;;;;21.30;14.77;;;3.30;99.90;;;;;;6211535;23;20019;-86
2023/01/28 09:47:04;;;;;;;20.05;15.38;;;3.40;99.90;;;;;;6211800;23;20449;-85
2023/01/28 09:49:39;;;;;;;18.90;14.68;;;3.50;99.90;;;;;;6210960;23;20005;-85
2023/01/28 09:52:13;;;;;;;16.95;13.93;;;3.50;99.90;;;;;;6184246;23;20004;-86
2023/01/28 09:54:54;;;;;;;20.05;13.85;;;3.60;99.90;;;;;;6210282;23;20027;-85
2023/01/28 09:57:23;;;;;;;19.27;15.23;;;3.80;99.90;;;;;;6210879;23;20056;-85
2023/01/28 09:59:49;;;;;;;17.38;14.07;;;3.90;99.90;;;;;;6210577;23;20011;-85
2023/01/28 10:02:15;;;;;;;19.35;14.57;;;4.00;99.90;;;;;;6183586;23;20091;-85
2023/01/28 10:04:57;;;;;;;19.00;14.23;;;4.10;99.90;;;;;;6210367;23;20027;-84
2023/01/28 10:07:59;;;;;;;17.50;13.63;;;4.20;99.90;;;;;;6210147;23;20076;-87
2023/01/28 10:10:30;;;;;;;16.83;12.93;;;4.40;99.90;;;;;;6211012;23;20464;-84
2023/01/28 10:13:36;;;;;;;16.45;12.95;;;4.20;99.90;;;;;;6210151;23;20015;-87
2023/01/28 10:16:17;;;;;;;17.73;14.00;;;4.30;99.90;;;;;;6211053;23;20083;-84
2023/01/28 10:18:53;;;;;;;20.83;14.27;;;4.40;99.90;;;;;;6183699;23;20013;-86
2023/01/28 10:21:19;;;;;;;16.48;12.75;;;4.40;99.90;;;;;;6210302;23;20013;-88
2023/01/28 10:24:14;;;;;;;16.83;12.68;;;4.50;99.90;;;;;;6183795;23;20376;-87
2023/01/28 10:26:41;;;;;;;21.75;12.57;;;4.60;99.90;;;;;;6178712;23;20083;-84
2023/01/28 10:29:31;;;;;;;16.73;12.75;;;4.60;99.90;;;;;;6180111;23;20005;-85
2023/01/28 10:32:12;;;;;;;14.38;12.50;;;4.50;99.90;;;;;;6180415;23;20422;-84
2023/01/28 10:34:38;;;;;;;15.05;11.35;;;4.50;99.90;;;;;;6181363;23;20005;-85
2023/01/28 10:37:04;;;;;;;17.55;11.60;;;4.50;99.90;;;;;;6180853;23;20384;-86
2023/01/28 10:39:29;;;;;;;18.98;11.70;;;4.50;99.90;;;;;;6182430;23;20012;-86
2023/01/28 10:41:55;;;;;;;14.82;10.50;;;4.50;99.90;;;;;;6180613;23;20080;-86
2023/01/28 10:44:31;;;;;;;17.27;11.73;;;4.50;99.90;;;;;;6179450;23;20080;-84
2023/01/28 10:47:03;;;;;;;14.40;10.30;;;4.50;99.90;;;;;;6177874;23;20084;-86
2023/01/28 10:49:30;;;;;;;15.20;10.18;;;4.50;99.90;;;;;;6180419;23;20005;-85
2023/01/28 10:51:57;;;;;;;12.30;9.55;;;4.40;99.90;;;;;;6180015;23;20076;-86
2023/01/28 10:54:27;;;;;;;16.58;10.82;;;4.50;99.90;;;;;;6178929;23;20005;-86
2023/01/28 10:57:17;;;;;;;12.15;10.45;;;4.70;99.90;;;;;;6178810;23;20112;-85
2023/01/28 10:59:44;;;;;;;18.50;10.88;;;4.50;99.90;;;;;;6167733;23;20346;-85
2023/01/28 11:02:31;;;;;;;13.98;10.82;;;4.50;99.90;;;;;;6180225;23;20087;-85
2023/01/28 11:05:01;;;;;;;16.08;10.50;;;4.50;99.90;;;;;;6178614;23;20461;-86
2023/01/28 11:07:27;;;;;;;13.20;10.52;;;4.60;99.90;;;;;;6180023;23;20071;-85
2023/01/28 11:09:53;;;;;;;13.93;10.95;;;4.70;99.90;;;;;;6181263;23;20442;-86
2023/01/28 11:12:24;;;;;;;14.30;11.70;;;4.70;99.90;;;;;;6182153;23;20005;-84
2023/01/28 11:14:57;;;;;;;18.02;10.38;;;4.70;99.90;;;;;;6180580;23;20005;-84
2023/01/28 11:17:25;;;;;;;13.52;10.85;;;4.80;99.90;;;;;;6181787;23;20051;-85
2023/01/28 11:19:53;;;;;;;15.35;11.00;;;4.80;99.90;;;;;;6180619;23;20007;-85
2023/01/28 11:22:42;;;;;;;15.20;10.40;;;4.90;99.90;;;;;;6181652;23;20036;-90
2023/01/28 11:25:19;;;;;;;14.20;10.40;;;4.90;99.90;;;;;;6180383;23;20319;-87
2023/01/28 11:27:47;;;;;;;13.75;10.50;;;5.00;99.90;;;;;;6202749;23;20392;-85
2023/01/28 11:30:39;;;;;;;13.50;10.00;;;5.00;99.90;;;;;;6212925;23;20001;-86
2023/01/28 11:33:16;;;;;;;11.05;9.10;;;5.00;99.90;;;;;;6214636;23;20338;-86
2023/01/28 11:35:41;;;;;;;17.13;9.40;;;5.00;99.90;;;;;;6213704;23;20000;-85
2023/01/28 11:38:18;;;;;;;12.25;8.98;;;5.00;99.90;;;;;;6185228;23;20009;-86
2023/01/28 11:40:57;;;;;;;12.70;7.93;;;5.20;99.90;;;;;;6185662;23;20446;-90
2023/01/28 11:43:28;;;;;;;9.73;7.50;;;5.20;99.90;;;;;;6213352;23;20039;-88
2023/01/28 11:46:03;;;;;;;9.98;6.50;;;5.10;99.90;;;;;;6212608;23;20000;-87
2023/01/28 11:48:47;;;;;;;8.20;6.78;;;5.10;99.90;;;;;;6211822;23;20434;-84
2023/01/28 11:51:34;;;;;;;8.05;6.72;;;5.20;99.90;;;;;;6211542;23;20329;-89
2023/01/28 11:54:13;;;;;;;10.05;6.75;;;5.10;99.90;;;;;;6185287;23;20334;-87
2023/01/28 11:57:03;;;;;;;7.93;6.07;;;5.00;99.90;;;;;;6211350;23;19997;-85
2023/01/28 11:59:48;;;;;;;10.70;5.97;;;5.00;99.90;;;;;;6185179;23;20399;-86
2023/01/28 12:02:25;;;;;;;10.48;6.88;;;5.00;99.90;;;;;;6191029;23;20396;-87
2023/01/28 12:05:02;;;;;;;8.88;5.90;;;5.10;99.90;;;;;;6184606;23;20008;-87
2023/01/28 12:07:44;;;;;;;8.07;5.60;;;5.20;99.90;;;;;;6211388;23;20000;-88
2023/01/28 12:10:25;;;;;;;9.07;5.97;;;5.30;99.90;;;;;;6212383;23;20024;-90
2023/01/28 12:13:09;;;;;;;8.75;5.35;;;5.30;99.90;;;;;;6213826;23;20028;-88
2023/01/28 12:15:46;;;;;;;8.18;4.97;;;5.30;99.90;;;;;;6214851;23;20005;-89
2023/01/28 12:18:33;;;;;;;7.32;5.80;;;5.40;99.90;;;;;;6191684;23;20017;-87
2023/01/28 12:21:07;;;;;;;8.77;5.38;;;5.30;99.90;;;;;;6186788;23;20083;-90
2023/01/28 12:23:38;;;;;;;7.55;5.13;;;5.20;99.90;;;;;;6188073;23;20068;-91
2023/01/28 12:26:15;;;;;;;8.60;4.97;;;5.40;99.90;;;;;;6214954;23;20001;-87
2023/01/28 12:29:02;;;;;;;5.63;4.45;;;5.40;99.90;;;;;;6185505;23;20012;-90
2023/01/28 12:31:56;;;;;;;7.22;4.60;;;5.40;99.90;;;;;;6214126;23;20000;-86
2023/01/28 12:34:53;;;;;;;8.02;5.15;;;5.30;99.90;;;;;;6214266;23;20441;-89
2023/01/28 12:37:34;;;;;;;9.07;5.82;;;5.20;99.90;;;;;;6213015;23;20322;-86
2023/01/28 12:40:08;;;;;;;7.57;5.18;;;5.20;99.90;;;;;;6184452;23;20062;-88
2023/01/28 12:43:00;;;;;;;7.95;5.30;;;5.20;99.90;;;;;;6211982;23;20013;-86
2023/01/28 12:45:40;;;;;;;10.48;5.30;;;5.40;99.90;;;;;;6206137;23;20000;-90
2023/01/28 12:48:18;;;;;;;11.43;5.38;;;5.50;99.90;;;;;;6215466;23;20000;-91
2023/01/28 12:50:53;;;;;;;10.90;5.10;;;5.60;99.90;;;;;;6214520;23;20087;-85
2023/01/28 12:53:25;;;;;;;8.38;5.35;;;5.50;99.90;;;;;;6212057;23;20011;-89
2023/01/28 12:56:03;;;;;;;7.78;5.25;;;5.40;99.90;;;;;;6212157;23;20024;-87
2023/01/28 12:58:45;;;;;;;6.38;5.28;;;5.30;99.90;;;;;;6213322;23;20032;-89
2023/01/28 13:01:15;;;;;;;7.18;5.00;;;5.30;99.90;;;;;;6213085;23;20011;-88
2023/01/28 13:03:49;;;;;;;9.65;5.70;;;5.30;99.90;;;;;;6186142;23;20005;-85
2023/01/28 13:06:32;;;;;;;7.97;5.20;;;5.20;99.90;;;;;;6211316;23;20431;-86
2023/01/28 13:09:02;;;;;;;10.93;6.07;;;5.30;99.90;;;;;;6211642;23;20027;-85
2023/01/28 13:11:34;;;;;;;9.23;5.97;;;5.40;99.90;;;;;;6184224;23;20062;-89
2023/01/28 13:14:00;;;;;;;9.02;5.47;;;5.40;99.90;;;;;;6186412;23;20001;-91
2023/01/28 13:16:26;;;;;;;6.97;5.28;;;5.50;99.90;;;;;;6216071;23;20008;-87
2023/01/28 13:18:52;;;;;;;7.88;6.25;;;5.50;99.90;;;;;;6215656;23;20047;-88
2023/01/28 13:21:23;;;;;;;8.40;5.65;;;5.40;99.90;;;;;;6189301;23;20013;-85
2023/01/28 13:24:01;;;;;;;9.57;5.65;;;5.30;99.90;;;;;;6215477;23;20004;-93
2023/01/28 13:26:36;;;;;;;9.90;5.25;;;5.40;99.90;;;;;;6216608;23;20920;-90
2023/01/28 13:29:14;;;;;;;7.50;5.13;;;5.30;99.90;;;;;;6187537;23;20678;-89
2023/01/28 13:31:46;;;;;;;8.65;5.10;;;5.40;99.90;;;;;;6186762;23;20043;-91